Impacts TAF Board INFO
FOR SITUATIONAL AWARENESS. NOT TO BE USED FOR FLIGHT PLANNING PURPOSES.
IDs:

KATL - Atlanta/Hartsfield-J, GA, US

Issued at 0732 UTC 15 Dec 2017
Updated at 0815 UTC 15 Dec 2017
Potential Impact None Slight Moderate High
Time<<16/09Z 16/10Z 16/11Z 16/12Z 16/13Z 16/14Z 16/15Z 16/16Z 16/17Z 16/18Z 16/19Z 16/20Z 16/21Z
Type PRVL PRVL PRVL
VIS >6 >6 >6
CIG -- -- --
Cover FEW FEW FEW
FltCat VFR VFR VFR
WX -- -- --
WDir 310 310 310
WSpd 6 6 6
WGst -- -- --

Raw TAF
KATL 150732Z 1508/1612 31006KT P6SM SCT150 BKN250
  TEMPO 1508/1510 BKN150
  FM151500 31012G20KT P6SM SCT180 BKN220
  FM160000 31010KT P6SM BKN250
  FM160300 31006KT P6SM FEW250


METAR Board
Radar Display
Forecast Discussion

FOR SITUATIONAL AWARENESS. NOT TO BE USED FOR FLIGHT PLANNING PURPOSES.